sensor_id;sensor_type;location;lat;lon;timestamp;P1;durP1;ratioP1;P2;durP2;ratioP2
13327;SDS011;6733;51.044;3.746;2023-08-20T00:00:28;10.53;;;3.33;;
13327;SDS011;6733;51.044;3.746;2023-08-20T00:02:58;11.73;;;3.70;;
13327;SDS011;6733;51.044;3.746;2023-08-20T00:05:29;7.33;;;3.30;;
13327;SDS011;6733;51.044;3.746;2023-08-20T00:07:55;11.77;;;3.70;;
13327;SDS011;6733;51.044;3.746;2023-08-20T00:10:22;8.07;;;3.67;;
13327;SDS011;6733;51.044;3.746;2023-08-20T00:12:48;8.73;;;3.40;;
13327;SDS011;6733;51.044;3.746;2023-08-20T00:15:14;9.37;;;3.43;;
13327;SDS011;6733;51.044;3.746;2023-08-20T00:17:40;10.03;;;3.90;;
13327;SDS011;6733;51.044;3.746;2023-08-20T00:20:08;7.10;;;3.23;;
13327;SDS011;6733;51.044;3.746;2023-08-20T00:22:42;8.70;;;3.50;;
13327;SDS011;6733;51.044;3.746;2023-08-20T00:25:11;12.50;;;4.97;;
13327;SDS011;6733;51.044;3.746;2023-08-20T00:27:39;8.27;;;3.43;;
13327;SDS011;6733;51.044;3.746;2023-08-20T00:30:05;9.97;;;4.03;;
13327;SDS011;6733;51.044;3.746;2023-08-20T00:32:32;10.77;;;4.13;;
13327;SDS011;6733;51.044;3.746;2023-08-20T00:34:58;9.20;;;3.93;;
13327;SDS011;6733;51.044;3.746;2023-08-20T00:37:24;10.67;;;4.63;;
13327;SDS011;6733;51.044;3.746;2023-08-20T00:39:51;12.00;;;4.93;;
13327;SDS011;6733;51.044;3.746;2023-08-20T00:42:17;14.33;;;4.30;;
13327;SDS011;6733;51.044;3.746;2023-08-20T00:44:43;11.57;;;5.23;;
13327;SDS011;6733;51.044;3.746;2023-08-20T00:47:12;9.90;;;4.27;;
13327;SDS011;6733;51.044;3.746;2023-08-20T00:49:39;11.37;;;4.97;;
13327;SDS011;6733;51.044;3.746;2023-08-20T00:52:07;11.40;;;5.03;;
13327;SDS011;6733;51.044;3.746;2023-08-20T00:54:34;13.53;;;5.17;;
13327;SDS011;6733;51.044;3.746;2023-08-20T00:57:01;10.20;;;4.80;;
13327;SDS011;6733;51.044;3.746;2023-08-20T00:59:29;9.87;;;4.60;;
13327;SDS011;6733;51.044;3.746;2023-08-20T01:01:57;9.10;;;4.57;;
13327;SDS011;6733;51.044;3.746;2023-08-20T01:04:24;10.70;;;4.47;;
13327;SDS011;6733;51.044;3.746;2023-08-20T01:09:55;7.87;;;3.90;;
13327;SDS011;6733;51.044;3.746;2023-08-20T01:12:31;10.07;;;4.43;;
13327;SDS011;6733;51.044;3.746;2023-08-20T01:14:57;11.27;;;4.60;;
13327;SDS011;6733;51.044;3.746;2023-08-20T01:17:24;7.00;;;4.00;;
13327;SDS011;6733;51.044;3.746;2023-08-20T01:19:50;10.53;;;4.23;;
13327;SDS011;6733;51.044;3.746;2023-08-20T01:30:55;7.00;;;3.87;;
13327;SDS011;6733;51.044;3.746;2023-08-20T01:33:23;10.90;;;4.40;;
13327;SDS011;6733;51.044;3.746;2023-08-20T01:35:50;8.97;;;3.83;;
13327;SDS011;6733;51.044;3.746;2023-08-20T01:38:20;9.97;;;3.83;;
13327;SDS011;6733;51.044;3.746;2023-08-20T01:40:46;9.03;;;3.93;;
13327;SDS011;6733;51.044;3.746;2023-08-20T01:43:13;12.03;;;4.00;;
13327;SDS011;6733;51.044;3.746;2023-08-20T01:45:39;11.63;;;4.10;;
13327;SDS011;6733;51.044;3.746;2023-08-20T01:48:05;5.87;;;3.90;;
13327;SDS011;6733;51.044;3.746;2023-08-20T01:50:32;9.53;;;4.10;;
13327;SDS011;6733;51.044;3.746;2023-08-20T01:53:00;11.93;;;4.17;;
13327;SDS011;6733;51.044;3.746;2023-08-20T01:55:28;8.13;;;4.17;;
13327;SDS011;6733;51.044;3.746;2023-08-20T01:57:54;8.83;;;3.90;;
13327;SDS011;6733;51.044;3.746;2023-08-20T02:00:20;11.57;;;4.37;;
13327;SDS011;6733;51.044;3.746;2023-08-20T02:02:47;13.80;;;4.50;;
13327;SDS011;6733;51.044;3.746;2023-08-20T02:05:13;11.80;;;4.80;;
13327;SDS011;6733;51.044;3.746;2023-08-20T02:07:39;8.83;;;4.23;;
13327;SDS011;6733;51.044;3.746;2023-08-20T02:10:05;9.43;;;4.70;;
13327;SDS011;6733;51.044;3.746;2023-08-20T02:12:32;9.20;;;3.83;;
13327;SDS011;6733;51.044;3.746;2023-08-20T02:14:58;10.10;;;4.53;;
13327;SDS011;6733;51.044;3.746;2023-08-20T02:17:25;9.80;;;4.43;;
13327;SDS011;6733;51.044;3.746;2023-08-20T02:19:51;9.47;;;4.27;;
13327;SDS011;6733;51.044;3.746;2023-08-20T02:22:17;8.63;;;4.00;;
13327;SDS011;6733;51.044;3.746;2023-08-20T02:24:46;9.90;;;4.10;;
13327;SDS011;6733;51.044;3.746;2023-08-20T02:27:12;8.07;;;4.00;;
13327;SDS011;6733;51.044;3.746;2023-08-20T02:29:38;11.77;;;4.60;;
13327;SDS011;6733;51.044;3.746;2023-08-20T02:32:04;9.80;;;4.10;;
13327;SDS011;6733;51.044;3.746;2023-08-20T02:34:31;7.67;;;4.47;;
13327;SDS011;6733;51.044;3.746;2023-08-20T02:36:57;9.20;;;4.30;;
13327;SDS011;6733;51.044;3.746;2023-08-20T02:39:51;11.13;;;4.13;;
13327;SDS011;6733;51.044;3.746;2023-08-20T02:42:45;7.73;;;4.47;;
13327;SDS011;6733;51.044;3.746;2023-08-20T02:45:42;6.70;;;4.00;;
13327;SDS011;6733;51.044;3.746;2023-08-20T02:48:37;9.20;;;4.33;;
13327;SDS011;6733;51.044;3.746;2023-08-20T02:51:32;10.10;;;4.27;;
13327;SDS011;6733;51.044;3.746;2023-08-20T02:54:26;9.33;;;4.30;;
13327;SDS011;6733;51.044;3.746;2023-08-20T02:56:54;11.47;;;4.30;;
13327;SDS011;6733;51.044;3.746;2023-08-20T02:59:20;8.40;;;3.97;;
13327;SDS011;6733;51.044;3.746;2023-08-20T03:01:47;7.93;;;4.00;;
13327;SDS011;6733;51.044;3.746;2023-08-20T03:04:13;7.63;;;4.13;;
13327;SDS011;6733;51.044;3.746;2023-08-20T03:06:39;6.23;;;3.70;;
13327;SDS011;6733;51.044;3.746;2023-08-20T03:09:05;7.30;;;4.20;;
13327;SDS011;6733;51.044;3.746;2023-08-20T03:11:31;9.23;;;4.10;;
13327;SDS011;6733;51.044;3.746;2023-08-20T03:13:57;8.83;;;4.47;;
13327;SDS011;6733;51.044;3.746;2023-08-20T03:16:24;8.53;;;4.13;;
13327;SDS011;6733;51.044;3.746;2023-08-20T03:18:50;7.47;;;3.93;;
13327;SDS011;6733;51.044;3.746;2023-08-20T03:21:16;11.80;;;4.73;;
13327;SDS011;6733;51.044;3.746;2023-08-20T03:23:42;7.93;;;4.23;;
13327;SDS011;6733;51.044;3.746;2023-08-20T03:26:08;9.20;;;4.00;;
13327;SDS011;6733;51.044;3.746;2023-08-20T03:28:34;9.13;;;4.00;;
13327;SDS011;6733;51.044;3.746;2023-08-20T03:31:00;10.40;;;4.20;;
13327;SDS011;6733;51.044;3.746;2023-08-20T03:33:27;7.53;;;3.70;;
13327;SDS011;6733;51.044;3.746;2023-08-20T03:35:53;9.63;;;4.13;;
13327;SDS011;6733;51.044;3.746;2023-08-20T03:38:20;11.00;;;3.67;;
13327;SDS011;6733;51.044;3.746;2023-08-20T03:40:47;8.37;;;4.03;;
13327;SDS011;6733;51.044;3.746;2023-08-20T03:43:13;11.33;;;4.43;;
13327;SDS011;6733;51.044;3.746;2023-08-20T03:45:40;8.63;;;4.03;;
13327;SDS011;6733;51.044;3.746;2023-08-20T03:48:06;9.33;;;3.67;;
13327;SDS011;6733;51.044;3.746;2023-08-20T03:50:32;8.33;;;3.83;;
13327;SDS011;6733;51.044;3.746;2023-08-20T03:52:58;7.40;;;3.80;;
13327;SDS011;6733;51.044;3.746;2023-08-20T03:55:24;7.47;;;3.60;;
13327;SDS011;6733;51.044;3.746;2023-08-20T03:57:50;9.20;;;4.20;;
13327;SDS011;6733;51.044;3.746;2023-08-20T04:00:16;8.57;;;3.97;;
13327;SDS011;6733;51.044;3.746;2023-08-20T04:02:43;8.17;;;3.60;;
13327;SDS011;6733;51.044;3.746;2023-08-20T04:05:09;8.83;;;4.00;;
13327;SDS011;6733;51.044;3.746;2023-08-20T04:07:35;6.40;;;3.33;;
13327;SDS011;6733;51.044;3.746;2023-08-20T04:10:01;8.80;;;3.70;;
13327;SDS011;6733;51.044;3.746;2023-08-20T04:12:27;7.37;;;4.10;;
13327;SDS011;6733;51.044;3.746;2023-08-20T04:14:54;8.23;;;4.97;;
13327;SDS011;6733;51.044;3.746;2023-08-20T04:17:20;9.33;;;5.00;;
13327;SDS011;6733;51.044;3.746;2023-08-20T04:19:46;9.60;;;4.73;;
13327;SDS011;6733;51.044;3.746;2023-08-20T04:22:12;8.07;;;4.10;;
13327;SDS011;6733;51.044;3.746;2023-08-20T04:24:39;8.87;;;4.17;;
13327;SDS011;6733;51.044;3.746;2023-08-20T04:27:05;7.30;;;4.17;;
13327;SDS011;6733;51.044;3.746;2023-08-20T04:29:31;8.87;;;4.30;;
13327;SDS011;6733;51.044;3.746;2023-08-20T04:31:58;6.63;;;3.97;;
13327;SDS011;6733;51.044;3.746;2023-08-20T04:34:24;8.27;;;4.03;;
13327;SDS011;6733;51.044;3.746;2023-08-20T04:36:50;8.87;;;4.30;;
13327;SDS011;6733;51.044;3.746;2023-08-20T04:39:17;7.33;;;4.13;;
13327;SDS011;6733;51.044;3.746;2023-08-20T04:41:44;6.77;;;3.77;;
13327;SDS011;6733;51.044;3.746;2023-08-20T04:44:10;10.20;;;4.00;;
13327;SDS011;6733;51.044;3.746;2023-08-20T04:46:36;7.40;;;3.90;;
13327;SDS011;6733;51.044;3.746;2023-08-20T04:49:02;5.73;;;3.60;;
13327;SDS011;6733;51.044;3.746;2023-08-20T04:51:29;5.97;;;3.27;;
13327;SDS011;6733;51.044;3.746;2023-08-20T04:53:55;6.87;;;4.00;;
13327;SDS011;6733;51.044;3.746;2023-08-20T04:56:21;7.27;;;4.03;;
13327;SDS011;6733;51.044;3.746;2023-08-20T04:58:47;9.37;;;4.10;;
13327;SDS011;6733;51.044;3.746;2023-08-20T05:01:13;6.10;;;3.80;;
13327;SDS011;6733;51.044;3.746;2023-08-20T05:03:39;10.53;;;4.40;;
13327;SDS011;6733;51.044;3.746;2023-08-20T05:06:05;9.40;;;4.00;;
13327;SDS011;6733;51.044;3.746;2023-08-20T05:08:31;9.67;;;3.67;;
13327;SDS011;6733;51.044;3.746;2023-08-20T05:10:58;6.10;;;3.77;;
13327;SDS011;6733;51.044;3.746;2023-08-20T05:13:24;9.87;;;4.00;;
13327;SDS011;6733;51.044;3.746;2023-08-20T05:15:50;8.10;;;3.90;;
13327;SDS011;6733;51.044;3.746;2023-08-20T05:18:16;7.40;;;3.23;;
13327;SDS011;6733;51.044;3.746;2023-08-20T05:20:42;9.70;;;4.00;;
13327;SDS011;6733;51.044;3.746;2023-08-20T05:23:08;5.07;;;3.50;;
13327;SDS011;6733;51.044;3.746;2023-08-20T05:25:35;9.00;;;3.70;;
13327;SDS011;6733;51.044;3.746;2023-08-20T05:28:01;6.30;;;3.53;;
13327;SDS011;6733;51.044;3.746;2023-08-20T05:30:27;6.70;;;3.50;;
13327;SDS011;6733;51.044;3.746;2023-08-20T05:32:53;5.10;;;2.93;;
13327;SDS011;6733;51.044;3.746;2023-08-20T05:35:19;5.60;;;3.33;;
13327;SDS011;6733;51.044;3.746;2023-08-20T05:37:46;6.63;;;3.53;;
13327;SDS011;6733;51.044;3.746;2023-08-20T05:40:12;6.47;;;3.60;;
13327;SDS011;6733;51.044;3.746;2023-08-20T05:42:45;8.40;;;3.80;;
13327;SDS011;6733;51.044;3.746;2023-08-20T05:45:23;8.17;;;3.70;;
13327;SDS011;6733;51.044;3.746;2023-08-20T05:47:49;8.43;;;3.80;;
13327;SDS011;6733;51.044;3.746;2023-08-20T05:50:15;8.63;;;4.13;;
13327;SDS011;6733;51.044;3.746;2023-08-20T05:52:41;7.60;;;3.33;;
13327;SDS011;6733;51.044;3.746;2023-08-20T05:55:07;7.37;;;4.07;;
13327;SDS011;6733;51.044;3.746;2023-08-20T05:57:35;8.20;;;3.47;;
13327;SDS011;6733;51.044;3.746;2023-08-20T06:00:03;6.93;;;3.73;;
13327;SDS011;6733;51.044;3.746;2023-08-20T06:02:30;6.07;;;3.27;;
13327;SDS011;6733;51.044;3.746;2023-08-20T06:04:56;6.57;;;3.10;;
13327;SDS011;6733;51.044;3.746;2023-08-20T06:07:22;7.00;;;3.40;;
13327;SDS011;6733;51.044;3.746;2023-08-20T06:09:48;8.27;;;3.50;;
13327;SDS011;6733;51.044;3.746;2023-08-20T06:12:16;6.83;;;3.20;;
13327;SDS011;6733;51.044;3.746;2023-08-20T06:14:42;6.37;;;3.27;;
13327;SDS011;6733;51.044;3.746;2023-08-20T06:17:08;9.07;;;3.50;;
13327;SDS011;6733;51.044;3.746;2023-08-20T06:19:35;6.27;;;3.03;;
13327;SDS011;6733;51.044;3.746;2023-08-20T06:22:01;5.60;;;2.90;;
13327;SDS011;6733;51.044;3.746;2023-08-20T06:24:28;8.87;;;3.30;;
13327;SDS011;6733;51.044;3.746;2023-08-20T06:26:54;6.90;;;3.07;;
13327;SDS011;6733;51.044;3.746;2023-08-20T06:29:20;6.33;;;3.37;;
13327;SDS011;6733;51.044;3.746;2023-08-20T06:31:47;7.33;;;3.07;;
13327;SDS011;6733;51.044;3.746;2023-08-20T06:34:14;5.90;;;3.10;;
13327;SDS011;6733;51.044;3.746;2023-08-20T06:36:40;8.97;;;2.90;;
13327;SDS011;6733;51.044;3.746;2023-08-20T06:39:07;8.23;;;2.80;;
13327;SDS011;6733;51.044;3.746;2023-08-20T06:41:34;7.23;;;2.70;;
13327;SDS011;6733;51.044;3.746;2023-08-20T06:44:01;7.87;;;2.97;;
13327;SDS011;6733;51.044;3.746;2023-08-20T06:46:28;8.47;;;3.30;;
13327;SDS011;6733;51.044;3.746;2023-08-20T06:48:54;5.97;;;2.60;;
13327;SDS011;6733;51.044;3.746;2023-08-20T06:51:20;7.20;;;2.60;;
13327;SDS011;6733;51.044;3.746;2023-08-20T06:53:48;7.57;;;2.90;;
13327;SDS011;6733;51.044;3.746;2023-08-20T06:56:15;6.70;;;2.70;;
13327;SDS011;6733;51.044;3.746;2023-08-20T06:58:41;5.63;;;2.63;;
13327;SDS011;6733;51.044;3.746;2023-08-20T07:01:08;8.70;;;3.00;;
13327;SDS011;6733;51.044;3.746;2023-08-20T07:03:37;6.23;;;2.40;;
13327;SDS011;6733;51.044;3.746;2023-08-20T07:06:04;7.83;;;2.63;;
13327;SDS011;6733;51.044;3.746;2023-08-20T07:08:31;6.43;;;2.70;;
13327;SDS011;6733;51.044;3.746;2023-08-20T07:10:58;5.97;;;2.60;;
13327;SDS011;6733;51.044;3.746;2023-08-20T07:13:24;5.27;;;2.17;;
13327;SDS011;6733;51.044;3.746;2023-08-20T07:15:50;3.50;;;2.20;;
13327;SDS011;6733;51.044;3.746;2023-08-20T07:18:17;7.70;;;2.90;;
13327;SDS011;6733;51.044;3.746;2023-08-20T07:20:43;4.00;;;2.17;;
13327;SDS011;6733;51.044;3.746;2023-08-20T07:23:10;5.63;;;2.40;;
13327;SDS011;6733;51.044;3.746;2023-08-20T07:25:37;5.03;;;2.33;;
13327;SDS011;6733;51.044;3.746;2023-08-20T07:28:05;4.87;;;2.00;;
13327;SDS011;6733;51.044;3.746;2023-08-20T07:30:32;6.20;;;2.63;;
13327;SDS011;6733;51.044;3.746;2023-08-20T07:32:58;6.97;;;2.40;;
13327;SDS011;6733;51.044;3.746;2023-08-20T07:35:24;5.73;;;2.60;;
13327;SDS011;6733;51.044;3.746;2023-08-20T07:37:51;5.03;;;2.33;;
13327;SDS011;6733;51.044;3.746;2023-08-20T07:40:17;5.73;;;2.23;;
13327;SDS011;6733;51.044;3.746;2023-08-20T07:42:43;6.50;;;2.47;;
13327;SDS011;6733;51.044;3.746;2023-08-20T07:45:09;4.03;;;2.30;;
13327;SDS011;6733;51.044;3.746;2023-08-20T07:47:36;9.53;;;3.30;;
13327;SDS011;6733;51.044;3.746;2023-08-20T07:50:03;7.20;;;2.40;;
13327;SDS011;6733;51.044;3.746;2023-08-20T07:52:31;6.40;;;2.20;;
13327;SDS011;6733;51.044;3.746;2023-08-20T07:54:58;5.07;;;2.00;;
13327;SDS011;6733;51.044;3.746;2023-08-20T07:57:24;4.10;;;2.13;;
13327;SDS011;6733;51.044;3.746;2023-08-20T07:59:51;5.00;;;1.80;;
13327;SDS011;6733;51.044;3.746;2023-08-20T08:02:17;3.37;;;1.90;;
13327;SDS011;6733;51.044;3.746;2023-08-20T08:04:43;3.42;;;1.83;;
13327;SDS011;6733;51.044;3.746;2023-08-20T08:07:10;4.28;;;2.05;;
13327;SDS011;6733;51.044;3.746;2023-08-20T08:09:36;4.78;;;2.20;;
13327;SDS011;6733;51.044;3.746;2023-08-20T08:12:03;5.25;;;1.95;;
13327;SDS011;6733;51.044;3.746;2023-08-20T08:14:30;6.43;;;1.90;;
13327;SDS011;6733;51.044;3.746;2023-08-20T08:16:56;4.75;;;2.13;;
13327;SDS011;6733;51.044;3.746;2023-08-20T08:19:23;6.50;;;2.20;;
13327;SDS011;6733;51.044;3.746;2023-08-20T08:21:49;5.30;;;2.40;;
13327;SDS011;6733;51.044;3.746;2023-08-20T08:24:15;4.55;;;2.03;;
13327;SDS011;6733;51.044;3.746;2023-08-20T08:26:41;3.72;;;1.80;;
13327;SDS011;6733;51.044;3.746;2023-08-20T08:29:08;3.20;;;1.70;;
13327;SDS011;6733;51.044;3.746;2023-08-20T08:31:35;6.03;;;2.10;;
13327;SDS011;6733;51.044;3.746;2023-08-20T08:34:01;5.55;;;2.20;;
13327;SDS011;6733;51.044;3.746;2023-08-20T08:36:28;3.97;;;2.10;;
13327;SDS011;6733;51.044;3.746;2023-08-20T08:38:55;5.97;;;2.08;;
13327;SDS011;6733;51.044;3.746;2023-08-20T08:41:21;3.47;;;2.00;;
13327;SDS011;6733;51.044;3.746;2023-08-20T08:43:51;5.97;;;2.10;;
13327;SDS011;6733;51.044;3.746;2023-08-20T08:46:20;4.78;;;2.53;;
13327;SDS011;6733;51.044;3.746;2023-08-20T08:48:48;4.50;;;2.42;;
13327;SDS011;6733;51.044;3.746;2023-08-20T08:51:14;4.43;;;2.33;;
13327;SDS011;6733;51.044;3.746;2023-08-20T08:53:42;3.40;;;2.00;;
13327;SDS011;6733;51.044;3.746;2023-08-20T08:56:10;3.05;;;1.90;;
13327;SDS011;6733;51.044;3.746;2023-08-20T08:58:36;3.22;;;2.03;;
13327;SDS011;6733;51.044;3.746;2023-08-20T09:01:02;3.88;;;1.92;;
13327;SDS011;6733;51.044;3.746;2023-08-20T09:03:28;2.95;;;1.67;;
13327;SDS011;6733;51.044;3.746;2023-08-20T09:05:56;3.08;;;2.05;;
13327;SDS011;6733;51.044;3.746;2023-08-20T09:08:28;3.78;;;1.73;;
13327;SDS011;6733;51.044;3.746;2023-08-20T09:10:56;2.50;;;1.70;;
13327;SDS011;6733;51.044;3.746;2023-08-20T09:13:25;2.33;;;1.70;;
13327;SDS011;6733;51.044;3.746;2023-08-20T09:15:58;2.90;;;1.70;;
13327;SDS011;6733;51.044;3.746;2023-08-20T09:18:24;4.03;;;1.70;;
13327;SDS011;6733;51.044;3.746;2023-08-20T09:20:50;2.90;;;1.45;;
13327;SDS011;6733;51.044;3.746;2023-08-20T09:23:17;2.25;;;1.60;;
13327;SDS011;6733;51.044;3.746;2023-08-20T09:25:43;2.97;;;1.67;;
13327;SDS011;6733;51.044;3.746;2023-08-20T09:28:10;6.40;;;2.15;;
13327;SDS011;6733;51.044;3.746;2023-08-20T09:30:37;3.67;;;1.52;;
13327;SDS011;6733;51.044;3.746;2023-08-20T09:33:11;4.25;;;1.95;;
13327;SDS011;6733;51.044;3.746;2023-08-20T09:35:49;3.38;;;1.70;;
13327;SDS011;6733;51.044;3.746;2023-08-20T09:38:16;4.22;;;1.95;;
13327;SDS011;6733;51.044;3.746;2023-08-20T09:40:51;4.60;;;2.10;;
13327;SDS011;6733;51.044;3.746;2023-08-20T09:43:18;6.28;;;2.05;;
13327;SDS011;6733;51.044;3.746;2023-08-20T09:45:48;3.55;;;2.00;;
13327;SDS011;6733;51.044;3.746;2023-08-20T09:48:17;3.45;;;2.15;;
13327;SDS011;6733;51.044;3.746;2023-08-20T09:50:47;3.92;;;1.60;;
13327;SDS011;6733;51.044;3.746;2023-08-20T09:56:24;5.25;;;1.92;;
13327;SDS011;6733;51.044;3.746;2023-08-20T09:59:00;3.40;;;1.90;;
13327;SDS011;6733;51.044;3.746;2023-08-20T10:01:27;4.43;;;2.00;;
13327;SDS011;6733;51.044;3.746;2023-08-20T10:03:54;3.47;;;1.60;;
13327;SDS011;6733;51.044;3.746;2023-08-20T10:06:20;2.70;;;1.50;;
13327;SDS011;6733;51.044;3.746;2023-08-20T10:08:47;3.83;;;2.10;;
13327;SDS011;6733;51.044;3.746;2023-08-20T10:11:15;4.72;;;1.90;;
13327;SDS011;6733;51.044;3.746;2023-08-20T10:13:42;4.72;;;2.30;;
13327;SDS011;6733;51.044;3.746;2023-08-20T10:16:11;4.05;;;1.67;;
13327;SDS011;6733;51.044;3.746;2023-08-20T10:18:38;6.55;;;2.35;;
13327;SDS011;6733;51.044;3.746;2023-08-20T10:21:05;5.93;;;2.17;;
13327;SDS011;6733;51.044;3.746;2023-08-20T10:23:36;3.95;;;1.88;;
13327;SDS011;6733;51.044;3.746;2023-08-20T10:26:08;4.85;;;2.08;;
13327;SDS011;6733;51.044;3.746;2023-08-20T10:28:35;3.42;;;1.83;;
13327;SDS011;6733;51.044;3.746;2023-08-20T10:31:05;3.78;;;1.90;;
13327;SDS011;6733;51.044;3.746;2023-08-20T10:33:33;7.93;;;1.90;;
13327;SDS011;6733;51.044;3.746;2023-08-20T10:36:12;3.28;;;2.05;;
13327;SDS011;6733;51.044;3.746;2023-08-20T10:38:44;3.80;;;1.92;;
13327;SDS011;6733;51.044;3.746;2023-08-20T10:41:11;4.38;;;2.05;;
13327;SDS011;6733;51.044;3.746;2023-08-20T10:43:38;4.38;;;1.55;;
13327;SDS011;6733;51.044;3.746;2023-08-20T10:48:40;4.38;;;1.83;;
13327;SDS011;6733;51.044;3.746;2023-08-20T10:53:38;4.93;;;2.40;;
13327;SDS011;6733;51.044;3.746;2023-08-20T10:56:15;4.65;;;2.47;;
13327;SDS011;6733;51.044;3.746;2023-08-20T10:58:46;4.22;;;2.40;;
13327;SDS011;6733;51.044;3.746;2023-08-20T11:03:47;3.53;;;2.30;;
13327;SDS011;6733;51.044;3.746;2023-08-20T11:06:14;6.47;;;2.67;;
13327;SDS011;6733;51.044;3.746;2023-08-20T11:08:41;4.20;;;2.25;;
13327;SDS011;6733;51.044;3.746;2023-08-20T11:11:08;3.75;;;2.25;;
13327;SDS011;6733;51.044;3.746;2023-08-20T11:13:37;3.58;;;2.13;;
13327;SDS011;6733;51.044;3.746;2023-08-20T11:16:03;7.30;;;2.10;;
13327;SDS011;6733;51.044;3.746;2023-08-20T11:18:31;2.72;;;1.67;;
13327;SDS011;6733;51.044;3.746;2023-08-20T11:20:59;5.72;;;2.42;;
13327;SDS011;6733;51.044;3.746;2023-08-20T11:23:26;5.22;;;1.95;;
13327;SDS011;6733;51.044;3.746;2023-08-20T11:25:53;5.30;;;1.85;;
13327;SDS011;6733;51.044;3.746;2023-08-20T11:28:19;2.67;;;1.77;;
13327;SDS011;6733;51.044;3.746;2023-08-20T11:30:46;4.70;;;2.35;;
13327;SDS011;6733;51.044;3.746;2023-08-20T11:33:13;6.65;;;3.78;;
13327;SDS011;6733;51.044;3.746;2023-08-20T11:35:39;2.85;;;2.10;;
13327;SDS011;6733;51.044;3.746;2023-08-20T11:38:06;4.60;;;1.92;;
13327;SDS011;6733;51.044;3.746;2023-08-20T11:40:32;2.47;;;1.88;;
13327;SDS011;6733;51.044;3.746;2023-08-20T11:42:59;3.05;;;1.67;;
13327;SDS011;6733;51.044;3.746;2023-08-20T11:45:26;4.88;;;1.90;;
13327;SDS011;6733;51.044;3.746;2023-08-20T11:47:55;4.55;;;1.85;;
13327;SDS011;6733;51.044;3.746;2023-08-20T11:50:23;4.47;;;1.77;;
13327;SDS011;6733;51.044;3.746;2023-08-20T11:52:51;6.25;;;2.15;;
13327;SDS011;6733;51.044;3.746;2023-08-20T11:55:23;2.35;;;1.70;;
13327;SDS011;6733;51.044;3.746;2023-08-20T11:57:53;5.15;;;1.85;;
13327;SDS011;6733;51.044;3.746;2023-08-20T12:00:25;4.47;;;1.88;;
13327;SDS011;6733;51.044;3.746;2023-08-20T12:02:53;3.00;;;1.90;;
13327;SDS011;6733;51.044;3.746;2023-08-20T12:05:29;3.05;;;1.90;;
13327;SDS011;6733;51.044;3.746;2023-08-20T12:07:57;3.17;;;2.22;;
13327;SDS011;6733;51.044;3.746;2023-08-20T12:10:25;5.57;;;2.35;;
13327;SDS011;6733;51.044;3.746;2023-08-20T12:12:52;4.75;;;1.92;;
13327;SDS011;6733;51.044;3.746;2023-08-20T12:15:20;2.65;;;1.40;;
13327;SDS011;6733;51.044;3.746;2023-08-20T12:20:27;3.60;;;2.00;;
13327;SDS011;6733;51.044;3.746;2023-08-20T12:22:54;4.35;;;1.77;;
13327;SDS011;6733;51.044;3.746;2023-08-20T12:25:22;5.72;;;2.08;;
13327;SDS011;6733;51.044;3.746;2023-08-20T12:27:51;3.08;;;2.05;;
13327;SDS011;6733;51.044;3.746;2023-08-20T12:30:21;5.03;;;2.20;;
13327;SDS011;6733;51.044;3.746;2023-08-20T12:32:47;3.53;;;1.85;;
13327;SDS011;6733;51.044;3.746;2023-08-20T12:35:14;3.90;;;2.00;;
13327;SDS011;6733;51.044;3.746;2023-08-20T12:37:40;3.42;;;1.95;;
13327;SDS011;6733;51.044;3.746;2023-08-20T12:40:07;6.00;;;2.00;;
13327;SDS011;6733;51.044;3.746;2023-08-20T12:42:37;2.72;;;1.70;;
13327;SDS011;6733;51.044;3.746;2023-08-20T12:45:05;5.30;;;1.92;;
13327;SDS011;6733;51.044;3.746;2023-08-20T12:47:32;5.40;;;2.20;;
13327;SDS011;6733;51.044;3.746;2023-08-20T12:49:58;6.95;;;2.10;;
13327;SDS011;6733;51.044;3.746;2023-08-20T12:52:24;6.70;;;2.22;;
13327;SDS011;6733;51.044;3.746;2023-08-20T12:54:51;6.78;;;1.77;;
13327;SDS011;6733;51.044;3.746;2023-08-20T12:57:17;3.20;;;1.52;;
13327;SDS011;6733;51.044;3.746;2023-08-20T12:59:43;3.10;;;1.85;;
13327;SDS011;6733;51.044;3.746;2023-08-20T13:02:10;4.30;;;1.80;;
13327;SDS011;6733;51.044;3.746;2023-08-20T13:04:36;2.72;;;1.58;;
13327;SDS011;6733;51.044;3.746;2023-08-20T13:07:03;3.95;;;1.65;;
13327;SDS011;6733;51.044;3.746;2023-08-20T13:09:30;4.60;;;1.88;;
13327;SDS011;6733;51.044;3.746;2023-08-20T13:11:56;2.28;;;1.67;;
13327;SDS011;6733;51.044;3.746;2023-08-20T13:14:26;5.43;;;1.90;;
13327;SDS011;6733;51.044;3.746;2023-08-20T13:16:52;3.38;;;1.90;;
13327;SDS011;6733;51.044;3.746;2023-08-20T13:19:18;6.60;;;1.80;;
13327;SDS011;6733;51.044;3.746;2023-08-20T13:21:45;3.55;;;1.77;;
13327;SDS011;6733;51.044;3.746;2023-08-20T13:24:11;3.28;;;1.60;;
13327;SDS011;6733;51.044;3.746;2023-08-20T13:26:37;6.60;;;2.20;;
13327;SDS011;6733;51.044;3.746;2023-08-20T13:29:03;3.78;;;1.95;;
13327;SDS011;6733;51.044;3.746;2023-08-20T13:31:29;3.20;;;1.77;;
13327;SDS011;6733;51.044;3.746;2023-08-20T13:33:56;3.72;;;1.75;;
13327;SDS011;6733;51.044;3.746;2023-08-20T13:36:22;3.38;;;2.08;;
13327;SDS011;6733;51.044;3.746;2023-08-20T13:38:48;4.40;;;2.35;;
13327;SDS011;6733;51.044;3.746;2023-08-20T13:41:14;6.13;;;2.20;;
13327;SDS011;6733;51.044;3.746;2023-08-20T13:43:40;6.65;;;2.10;;
13327;SDS011;6733;51.044;3.746;2023-08-20T13:46:06;2.60;;;1.60;;
13327;SDS011;6733;51.044;3.746;2023-08-20T13:48:33;3.30;;;1.50;;
13327;SDS011;6733;51.044;3.746;2023-08-20T13:50:59;4.95;;;2.08;;
13327;SDS011;6733;51.044;3.746;2023-08-20T13:53:26;5.35;;;1.77;;
13327;SDS011;6733;51.044;3.746;2023-08-20T13:55:52;4.30;;;1.90;;
13327;SDS011;6733;51.044;3.746;2023-08-20T13:58:19;2.83;;;2.03;;
13327;SDS011;6733;51.044;3.746;2023-08-20T14:00:45;7.03;;;3.17;;
13327;SDS011;6733;51.044;3.746;2023-08-20T14:03:11;6.03;;;2.97;;
13327;SDS011;6733;51.044;3.746;2023-08-20T14:05:38;7.07;;;2.60;;
13327;SDS011;6733;51.044;3.746;2023-08-20T14:08:04;9.32;;;2.90;;
13327;SDS011;6733;51.044;3.746;2023-08-20T14:10:30;7.32;;;2.83;;
13327;SDS011;6733;51.044;3.746;2023-08-20T14:12:57;6.40;;;2.55;;
13327;SDS011;6733;51.044;3.746;2023-08-20T14:15:23;8.02;;;2.92;;
13327;SDS011;6733;51.044;3.746;2023-08-20T14:17:49;7.68;;;2.78;;
13327;SDS011;6733;51.044;3.746;2023-08-20T14:20:15;6.95;;;2.88;;
13327;SDS011;6733;51.044;3.746;2023-08-20T14:22:41;8.32;;;2.75;;
13327;SDS011;6733;51.044;3.746;2023-08-20T14:25:08;8.27;;;2.63;;
13327;SDS011;6733;51.044;3.746;2023-08-20T14:27:34;10.38;;;3.05;;
13327;SDS011;6733;51.044;3.746;2023-08-20T14:30:00;7.50;;;2.75;;
13327;SDS011;6733;51.044;3.746;2023-08-20T14:32:26;6.13;;;2.60;;
13327;SDS011;6733;51.044;3.746;2023-08-20T14:34:52;4.53;;;2.28;;
13327;SDS011;6733;51.044;3.746;2023-08-20T14:37:18;5.68;;;2.63;;
13327;SDS011;6733;51.044;3.746;2023-08-20T14:39:45;6.72;;;3.00;;
13327;SDS011;6733;51.044;3.746;2023-08-20T14:42:11;5.55;;;2.72;;
13327;SDS011;6733;51.044;3.746;2023-08-20T14:44:37;5.20;;;2.70;;
13327;SDS011;6733;51.044;3.746;2023-08-20T14:47:04;7.82;;;3.38;;
13327;SDS011;6733;51.044;3.746;2023-08-20T14:49:30;6.97;;;2.90;;
13327;SDS011;6733;51.044;3.746;2023-08-20T14:51:57;7.75;;;3.00;;
13327;SDS011;6733;51.044;3.746;2023-08-20T14:54:25;4.78;;;2.53;;
13327;SDS011;6733;51.044;3.746;2023-08-20T14:56:51;5.85;;;2.47;;
13327;SDS011;6733;51.044;3.746;2023-08-20T14:59:18;6.38;;;2.80;;
13327;SDS011;6733;51.044;3.746;2023-08-20T15:01:44;8.02;;;3.05;;
13327;SDS011;6733;51.044;3.746;2023-08-20T15:04:10;6.22;;;3.00;;
13327;SDS011;6733;51.044;3.746;2023-08-20T15:06:36;5.65;;;2.47;;
13327;SDS011;6733;51.044;3.746;2023-08-20T15:09:02;6.55;;;2.80;;
13327;SDS011;6733;51.044;3.746;2023-08-20T15:11:29;5.05;;;2.60;;
13327;SDS011;6733;51.044;3.746;2023-08-20T15:13:55;4.30;;;2.40;;
13327;SDS011;6733;51.044;3.746;2023-08-20T15:16:21;6.68;;;2.60;;
13327;SDS011;6733;51.044;3.746;2023-08-20T15:18:48;5.25;;;2.60;;
13327;SDS011;6733;51.044;3.746;2023-08-20T15:21:14;6.53;;;2.47;;
13327;SDS011;6733;51.044;3.746;2023-08-20T15:23:40;6.30;;;2.25;;
13327;SDS011;6733;51.044;3.746;2023-08-20T15:26:06;7.50;;;2.78;;